Time;durP1;ratioP1;P1;durP2;ratioP2;P2;SDS_P1;SDS_P2;PMS_P1;PMS_P2;Temp;Humidity;BMP_temperature;BMP_pressure;BME280_temperature;BME280_humidity;BME280_pressure;Samples;Min_cycle;Max_cycle;Signal;HPM_P1;HPM_P2
2024/01/15 00:01:31;;;;;;;13.90;9.80;;;;;;;-0.50;82.16;97742.04;106835;1263;73008;-40
2024/01/15 00:04:00;;;;;;;13.00;8.70;;;;;;;-0.57;81.96;97741.49;106856;1264;60898;-40
2024/01/15 00:06:28;;;;;;;10.90;8.10;;;;;;;-0.53;81.99;97744.29;106925;1263;60050;-40
2024/01/15 00:08:58;;;;;;;11.30;7.90;;;;;;;-0.50;81.52;97740.23;106928;1262;72972;-40
2024/01/15 00:11:25;;;;;;;12.60;8.90;;;;;;;-0.53;81.30;97740.34;106887;1262;66751;-40
2024/01/15 00:13:53;;;;;;;13.20;8.90;;;;;;;-0.58;81.76;97738.94;106860;1263;71480;-40
2024/01/15 00:16:20;;;;;;;13.20;9.00;;;;;;;-0.60;82.11;97735.73;106902;1268;60903;-40
2024/01/15 00:18:48;;;;;;;11.90;7.90;;;;;;;-0.58;82.86;97737.13;106862;1267;59504;-40
2024/01/15 00:21:16;;;;;;;12.90;8.60;;;;;;;-0.58;82.39;97732.86;106866;1263;72858;-40
2024/01/15 00:23:46;;;;;;;13.00;8.80;;;;;;;-0.62;82.68;97734.85;106847;1267;67898;-40
2024/01/15 00:26:14;;;;;;;11.10;8.20;;;;;;;-0.66;82.52;97735.38;106798;1264;72752;-40
2024/01/15 00:28:41;;;;;;;11.70;8.20;;;;;;;-0.62;82.26;97734.54;106878;1263;61020;-40
2024/01/15 00:31:09;;;;;;;12.70;9.00;;;;;;;-0.58;81.85;97734.02;106863;1263;60211;-40
2024/01/15 00:33:37;;;;;;;12.20;8.90;;;;;;;-0.60;81.99;97736.58;106847;1263;73108;-40
2024/01/15 00:36:05;;;;;;;12.00;8.60;;;;;;;-0.64;81.76;97738.19;106833;1262;67570;-40
2024/01/15 00:38:33;;;;;;;10.50;8.20;;;;;;;-0.64;81.77;97736.27;106888;1264;72445;-40
2024/01/15 00:41:00;;;;;;;12.20;8.70;;;;;;;-0.59;81.54;97734.81;106866;1263;59508;-40
2024/01/15 00:43:28;;;;;;;11.60;8.60;;;;;;;-0.59;81.42;97738.55;106841;1263;59866;-40
2024/01/15 00:45:55;;;;;;;11.70;8.40;;;;;;;-0.65;81.53;97736.80;106847;1263;71825;-40
2024/01/15 00:48:23;;;;;;;12.90;8.30;;;;;;;-0.68;81.48;97736.38;106822;1268;66660;-40
2024/01/15 00:50:51;;;;;;;10.00;7.70;;;;;;;-0.65;81.35;97737.71;106810;1263;71411;-40
2024/01/15 00:53:19;;;;;;;12.10;8.10;;;;;;;-0.61;81.35;97734.80;106822;1264;59631;-40
2024/01/15 00:55:48;;;;;;;13.90;8.30;;;;;;;-0.64;81.22;97733.55;106882;1267;59649;-40
2024/01/15 00:58:16;;;;;;;14.80;9.20;;;;;;;-0.70;81.49;97729.41;106893;1268;73128;-40
2024/01/15 01:00:43;;;;;;;10.60;7.50;;;;;;;-0.67;81.61;97727.87;106842;1262;68079;-40
2024/01/15 01:03:11;;;;;;;11.00;7.40;;;;;;;-0.61;81.46;97736.11;106805;1267;72730;-40
2024/01/15 01:05:38;;;;;;;10.20;7.70;;;;;;;-0.60;81.64;97734.84;106860;1264;59656;-40
2024/01/15 01:08:06;;;;;;;12.40;8.00;;;;;;;-0.66;81.64;97730.61;106845;1267;59463;-40
2024/01/15 01:10:33;;;;;;;11.50;8.10;;;;;;;-0.68;81.82;97730.30;106846;1263;72485;-40
2024/01/15 01:13:01;;;;;;;10.90;7.60;;;;;;;-0.66;81.34;97729.31;106876;1266;66310;-40
2024/01/15 01:15:28;;;;;;;11.30;7.70;;;;;;;-0.61;80.82;97730.61;106865;1264;71687;-40
2024/01/15 01:17:56;;;;;;;11.70;8.50;;;;;;;-0.60;80.15;97736.14;106880;1264;59641;-40
2024/01/15 01:20:24;;;;;;;13.60;8.80;;;;;;;-0.63;80.05;97733.15;106811;1267;59619;-40
2024/01/15 01:22:51;;;;;;;11.70;8.20;;;;;;;-0.65;79.66;97733.38;106106;1264;1003078;-40
2024/01/15 01:25:19;;;;;;;11.80;7.90;;;;;;;-0.63;79.42;97734.41;106871;1266;66630;-40
2024/01/15 01:27:47;;;;;;;11.50;7.60;;;;;;;-0.59;78.81;97732.59;106842;1266;71114;-40
2024/01/15 01:30:14;;;;;;;13.80;8.70;;;;;;;-0.58;78.51;97735.46;106795;1268;59663;-40
2024/01/15 01:32:42;;;;;;;10.70;8.10;;;;;;;-0.62;78.42;97732.11;106858;1266;60070;-40
2024/01/15 01:35:10;;;;;;;10.90;7.50;;;;;;;-0.67;78.38;97735.45;106855;1263;73083;-41
2024/01/15 01:37:37;;;;;;;11.90;7.90;;;;;;;-0.66;78.13;97728.84;106848;1267;68033;-40
2024/01/15 01:40:06;;;;;;;11.10;8.20;;;;;;;-0.62;77.79;97725.63;106832;1268;71376;-41
2024/01/15 01:42:33;;;;;;;11.30;7.70;;;;;;;-0.62;77.78;97725.16;106843;1269;59749;-40
2024/01/15 01:45:01;;;;;;;11.80;7.90;;;;;;;-0.66;77.52;97726.59;106900;1264;60006;-40
2024/01/15 01:47:28;;;;;;;13.00;8.40;;;;;;;-0.70;77.67;97724.36;106817;1264;73024;-40
2024/01/15 01:49:56;;;;;;;10.90;7.70;;;;;;;-0.70;77.35;97724.05;106738;1268;67542;-40
2024/01/15 01:52:23;;;;;;;11.40;8.60;;;;;;;-0.66;77.29;97729.17;106757;1265;71445;-40
2024/01/15 01:54:51;;;;;;;13.20;8.10;;;;;;;-0.65;77.11;97735.28;106756;1268;59671;-40
2024/01/15 01:57:19;;;;;;;12.00;8.30;;;;;;;-0.69;77.01;97732.46;106756;1263;59635;-40
2024/01/15 01:59:46;;;;;;;12.60;8.60;;;;;;;-0.73;76.98;97730.34;105955;1269;1003690;-40
2024/01/15 02:02:14;;;;;;;11.00;8.10;;;;;;;-0.73;76.82;97722.96;106756;1264;66627;-40
2024/01/15 02:04:41;;;;;;;12.80;8.10;;;;;;;-0.66;76.53;97722.23;106772;1269;71397;-40
2024/01/15 02:07:09;;;;;;;12.60;8.50;;;;;;;-0.64;76.36;97719.72;106731;1264;59870;-40
2024/01/15 02:09:37;;;;;;;12.30;8.60;;;;;;;-0.68;76.10;97717.23;106809;1264;60332;-40
2024/01/15 02:12:05;;;;;;;12.60;8.50;;;;;;;-0.71;76.19;97719.23;106743;1263;73806;-40
2024/01/15 02:14:33;;;;;;;12.60;8.70;;;;;;;-0.73;76.03;97716.96;106813;1268;66486;-41
2024/01/15 02:17:00;;;;;;;12.40;8.60;;;;;;;-0.66;75.82;97713.94;106743;1268;72167;-40
2024/01/15 02:19:28;;;;;;;12.70;8.50;;;;;;;-0.64;75.53;97713.41;106716;1269;60468;-40
2024/01/15 02:21:55;;;;;;;13.00;8.60;;;;;;;-0.67;75.35;97713.44;107240;1257;60344;-40
2024/01/15 02:24:23;;;;;;;11.80;8.90;;;;;;;-0.70;75.29;97717.45;107212;1258;73821;-40
2024/01/15 02:26:50;;;;;;;12.70;8.40;;;;;;;-0.74;75.01;97720.45;107227;1257;67579;-40
2024/01/15 02:29:18;;;;;;;10.40;7.20;;;;;;;-0.68;74.90;97715.70;107158;1257;71404;-40
2024/01/15 02:31:45;;;;;;;12.90;8.40;;;;;;;-0.63;74.69;97711.91;107152;1257;60441;-40
2024/01/15 02:34:13;;;;;;;12.80;8.90;;;;;;;-0.67;74.51;97701.52;107245;1257;60335;-40
2024/01/15 02:36:41;;;;;;;13.00;9.10;;;;;;;-0.70;74.48;97709.34;107270;1256;73778;-40
2024/01/15 02:39:08;;;;;;;14.10;8.90;;;;;;;-0.73;74.68;97701.29;107235;1261;68067;-40
2024/01/15 02:41:36;;;;;;;11.60;8.30;;;;;;;-0.72;74.42;97706.59;107181;1257;72203;-40
2024/01/15 02:44:04;;;;;;;12.60;8.50;;;;;;;-0.65;74.22;97707.13;107228;1261;59567;-40
2024/01/15 02:46:32;;;;;;;12.90;9.10;;;;;;;-0.65;74.00;97710.80;107213;1257;60417;-40
2024/01/15 02:48:59;;;;;;;12.20;9.00;;;;;;;-0.67;74.13;97709.41;107221;1257;73839;-40
2024/01/15 02:51:27;;;;;;;12.60;9.10;;;;;;;-0.71;74.05;97703.14;107381;1256;65524;-40
2024/01/15 02:53:54;;;;;;;13.00;8.80;;;;;;;-0.75;74.11;97700.61;107199;1260;72687;-40
2024/01/15 02:56:22;;;;;;;13.40;8.90;;;;;;;-0.73;73.81;97694.67;107348;1257;60501;-40
2024/01/15 02:58:49;;;;;;;12.10;9.10;;;;;;;-0.71;73.51;97696.35;107209;1257;60437;-40
2024/01/15 03:01:19;;;;;;;15.50;9.40;;;;;;;-0.76;73.55;97696.77;107220;1256;74295;-40
2024/01/15 03:03:47;;;;;;;13.90;9.50;;;;;;;-0.84;73.19;97698.70;107282;1257;67567;-40
2024/01/15 03:06:15;;;;;;;13.00;9.50;;;;;;;-0.93;73.28;97700.04;107244;1257;71518;-40
2024/01/15 03:08:43;;;;;;;15.10;9.70;;;;;;;-1.04;72.98;97697.20;107168;1257;60527;-40
2024/01/15 03:11:10;;;;;;;14.90;9.70;;;;;;;-1.16;73.11;97703.91;107248;1258;60300;-40
2024/01/15 03:13:38;;;;;;;14.50;9.20;;;;;;;-1.20;72.93;97704.56;107249;1257;73827;-40
2024/01/15 03:16:06;;;;;;;13.10;8.90;;;;;;;-1.25;72.93;97697.56;107215;1257;67962;-40
2024/01/15 03:18:33;;;;;;;13.70;9.50;;;;;;;-1.35;73.03;97694.59;107219;1257;71484;-40
2024/01/15 03:21:01;;;;;;;14.20;9.40;;;;;;;-1.42;73.25;97696.00;107186;1257;60306;-39
2024/01/15 03:23:29;;;;;;;14.30;9.20;;;;;;;-1.48;73.52;97701.29;107212;1257;60377;-39
2024/01/15 03:25:56;;;;;;;13.90;9.70;;;;;;;-1.54;73.46;97699.41;107284;1258;73835;-40
2024/01/15 03:28:24;;;;;;;14.40;9.10;;;;;;;-1.59;73.63;97704.00;107246;1260;66846;-40
2024/01/15 03:30:51;;;;;;;14.10;8.60;;;;;;;-1.56;73.60;97706.17;107228;1258;71378;-40
2024/01/15 03:33:19;;;;;;;14.00;8.60;;;;;;;-1.50;73.48;97703.35;107218;1257;60450;-40
2024/01/15 03:35:47;;;;;;;12.00;8.60;;;;;;;-1.52;73.41;97705.88;107232;1258;60435;-40
2024/01/15 03:38:14;;;;;;;14.50;8.70;;;;;;;-1.56;73.21;97705.02;107218;1257;72667;-40
2024/01/15 03:40:42;;;;;;;12.90;9.60;;;;;;;-1.61;73.28;97711.41;107205;1256;67611;-41
2024/01/15 03:43:10;;;;;;;13.80;9.80;;;;;;;-1.67;73.11;97708.76;107207;1257;71700;-41
2024/01/15 03:45:37;;;;;;;15.20;10.00;;;;;;;-1.73;73.17;97705.88;107198;1258;60352;-40
2024/01/15 03:48:05;;;;;;;17.00;10.20;;;;;;;-1.78;73.14;97708.86;107220;1257;60225;-40
2024/01/15 03:50:33;;;;;;;13.40;9.50;;;;;;;-1.77;72.99;97706.87;107284;1257;72641;-40
2024/01/15 03:53:00;;;;;;;15.30;9.60;;;;;;;-1.72;72.76;97705.06;107230;1260;67872;-40
2024/01/15 03:55:28;;;;;;;15.10;9.80;;;;;;;-1.75;72.52;97707.13;107203;1258;72557;-40
2024/01/15 03:57:55;;;;;;;15.20;9.60;;;;;;;-1.81;72.45;97706.00;107213;1257;60342;-40
2024/01/15 04:00:23;;;;;;;16.50;9.80;;;;;;;-1.87;72.48;97712.54;107212;1258;59684;-40
2024/01/15 04:02:51;;;;;;;13.70;9.80;;;;;;;-1.94;72.43;97711.87;107178;1257;73823;-40
2024/01/15 04:05:18;;;;;;;15.50;10.20;;;;;;;-2.00;72.50;97711.52;107185;1257;67900;-40
2024/01/15 04:07:46;;;;;;;15.70;10.10;;;;;;;-2.07;72.55;97714.41;107223;1261;71403;-40
2024/01/15 04:10:14;;;;;;;13.20;9.20;;;;;;;-2.07;72.38;97715.70;107159;1270;61313;-41
2024/01/15 04:12:41;;;;;;;15.40;10.10;;;;;;;-2.04;72.31;97725.93;107224;1260;60318;-40
2024/01/15 04:15:09;;;;;;;15.40;8.90;;;;;;;-2.09;72.06;97721.25;107215;1260;73142;-41
2024/01/15 04:17:36;;;;;;;14.10;9.90;;;;;;;-2.15;72.40;97728.70;107214;1257;66646;-40
2024/01/15 04:20:05;;;;;;;14.90;9.70;;;;;;;-2.21;72.63;97726.80;107196;1258;72657;-40
2024/01/15 04:22:33;;;;;;;15.80;9.80;;;;;;;-2.26;72.92;97723.13;107287;1258;60763;-40
2024/01/15 04:25:01;;;;;;;15.60;10.20;;;;;;;-2.28;73.07;97721.23;107293;1257;60523;-40
2024/01/15 04:27:29;;;;;;;15.50;9.80;;;;;;;-2.29;73.29;97718.77;107287;1257;73852;-40
2024/01/15 04:29:56;;;;;;;17.90;9.20;;;;;;;-2.22;73.32;97710.48;107212;1257;67877;-40
2024/01/15 04:32:24;;;;;;;15.10;9.80;;;;;;;-2.12;73.47;97713.39;107205;1257;72880;-40
2024/01/15 04:34:51;;;;;;;18.80;10.00;;;;;;;-2.10;73.28;97713.23;107239;1257;60584;-40
2024/01/15 04:37:19;;;;;;;16.30;10.30;;;;;;;-2.11;73.25;97713.78;107203;1256;60373;-40
2024/01/15 04:39:46;;;;;;;15.20;9.60;;;;;;;-2.11;73.12;97716.19;107229;1258;73854;-40
2024/01/15 04:42:14;;;;;;;19.40;10.80;;;;;;;-2.15;72.95;97717.11;107237;1257;66453;-40
2024/01/15 04:44:42;;;;;;;17.00;10.70;;;;;;;-2.16;72.85;97717.45;107121;1263;72680;-40
2024/01/15 04:47:09;;;;;;;15.70;9.50;;;;;;;-2.17;72.81;97723.30;107355;1257;60912;-39
2024/01/15 04:49:36;;;;;;;15.60;9.80;;;;;;;-2.12;72.56;97720.73;107245;1257;60386;-40
2024/01/15 04:52:05;;;;;;;14.60;9.30;;;;;;;-2.04;72.40;97721.67;107216;1256;73802;-40
2024/01/15 04:54:32;;;;;;;18.60;10.70;;;;;;;-2.03;72.29;97719.14;107210;1257;67539;-40
2024/01/15 04:57:00;;;;;;;15.30;10.00;;;;;;;-2.02;72.20;97716.57;107218;1257;73136;-40
2024/01/15 04:59:27;;;;;;;16.60;10.50;;;;;;;-2.04;72.14;97713.49;107228;1257;60428;-40
2024/01/15 05:01:55;;;;;;;16.80;10.40;;;;;;;-2.06;72.07;97712.81;107212;1256;60565;-40
2024/01/15 05:04:22;;;;;;;17.30;10.60;;;;;;;-2.09;72.07;97712.20;107164;1260;73054;-40
2024/01/15 05:06:50;;;;;;;15.70;10.10;;;;;;;-2.12;72.25;97712.32;106454;1257;1002848;-40
2024/01/15 05:09:18;;;;;;;18.20;10.60;;;;;;;-2.09;72.25;97712.19;107186;1257;71072;-40
2024/01/15 05:11:45;;;;;;;15.60;9.10;;;;;;;-1.99;72.18;97712.79;107208;1261;60664;-40
2024/01/15 05:14:13;;;;;;;18.60;10.20;;;;;;;-1.94;72.03;97717.46;107226;1256;60337;-41
2024/01/15 05:16:47;;;;;;;16.10;10.20;;;;;;;-1.93;72.40;97722.57;107241;1257;72628;-40
2024/01/15 05:19:15;;;;;;;18.70;10.80;;;;;;;-1.91;72.28;97724.04;107232;1260;67610;-41
2024/01/15 05:21:43;;;;;;;18.40;10.60;;;;;;;-1.89;72.30;97726.39;107215;1258;72659;-40
2024/01/15 05:24:10;;;;;;;15.40;10.10;;;;;;;-1.88;72.36;97726.73;107221;1257;60389;-40
2024/01/15 05:26:38;;;;;;;18.60;10.40;;;;;;;-1.86;72.26;97721.14;107393;1256;60348;-40
2024/01/15 05:29:05;;;;;;;17.70;10.10;;;;;;;-1.75;72.13;97721.86;107249;1260;73821;-40
2024/01/15 05:31:33;;;;;;;15.90;10.10;;;;;;;-1.67;72.00;97722.27;107212;1257;67592;-40
2024/01/15 05:34:01;;;;;;;16.60;9.70;;;;;;;-1.66;71.68;97724.23;107217;1257;72705;-40
2024/01/15 05:36:28;;;;;;;18.60;10.70;;;;;;;-1.65;71.69;97725.30;107253;1257;60319;-40
2024/01/15 05:38:56;;;;;;;15.90;10.00;;;;;;;-1.66;71.76;97726.42;106471;1257;1002500;-40
2024/01/15 05:41:24;;;;;;;16.60;10.20;;;;;;;-1.66;71.71;97726.48;107243;1256;73749;-40
2024/01/15 05:43:51;;;;;;;18.30;10.30;;;;;;;-1.63;71.68;97720.90;106467;1260;1003403;-40
2024/01/15 05:46:19;;;;;;;16.60;10.00;;;;;;;-1.55;71.52;97724.11;107201;1257;72636;-40
2024/01/15 05:48:46;;;;;;;17.50;9.70;;;;;;;-1.52;71.53;97723.70;107388;1257;60434;-40
2024/01/15 05:51:14;;;;;;;15.90;10.10;;;;;;;-1.54;71.45;97724.81;107196;1256;60464;-40
2024/01/15 05:53:42;;;;;;;19.20;11.60;;;;;;;-1.55;71.34;97727.05;107236;1256;73787;-40
2024/01/15 05:56:10;;;;;;;16.30;10.70;;;;;;;-1.57;71.35;97719.88;106462;1257;1003048;-41
2024/01/15 05:58:37;;;;;;;17.10;10.00;;;;;;;-1.56;71.39;97718.91;107246;1257;72965;-40
2024/01/15 06:01:05;;;;;;;16.80;9.90;;;;;;;-1.50;71.36;97714.98;107204;1257;60401;-40
2024/01/15 06:03:33;;;;;;;16.80;10.40;;;;;;;-1.42;71.19;97716.20;107221;1257;60421;-40
2024/01/15 06:06:00;;;;;;;17.10;10.40;;;;;;;-1.40;71.09;97714.82;107240;1257;73911;-37
2024/01/15 06:08:28;;;;;;;16.70;10.30;;;;;;;-1.41;71.08;97713.08;107224;1257;67843;-39
2024/01/15 06:10:56;;;;;;;15.10;9.90;;;;;;;-1.42;71.08;97718.42;107240;1257;71908;-41
2024/01/15 06:13:28;;;;;;;15.30;9.60;;;;;;;-1.43;71.05;97720.05;107352;1259;60322;-39
2024/01/15 06:15:55;;;;;;;15.30;9.70;;;;;;;-1.44;71.35;97723.27;107241;1260;59583;-39
2024/01/15 06:18:23;;;;;;;13.50;9.30;;;;;;;-1.39;71.26;97724.69;107226;1257;73817;-39
2024/01/15 06:20:51;;;;;;;13.00;8.70;;;;;;;-1.29;71.29;97724.45;107254;1258;67810;-39
2024/01/15 06:23:19;;;;;;;13.30;9.00;;;;;;;-1.28;71.16;97723.79;107178;1257;71789;-39
2024/01/15 06:25:48;;;;;;;14.60;8.50;;;;;;;-1.29;71.23;97725.41;107169;1257;60335;-39
2024/01/15 06:28:15;;;;;;;13.00;8.80;;;;;;;-1.29;71.74;97728.08;107322;1260;60334;-38
2024/01/15 06:30:43;;;;;;;14.90;8.80;;;;;;;-1.30;71.57;97728.52;107216;1257;73853;-39
2024/01/15 06:33:10;;;;;;;14.60;8.70;;;;;;;-1.30;71.63;97731.85;107227;1257;67511;-39
2024/01/15 06:35:38;;;;;;;14.10;8.50;;;;;;;-1.22;71.88;97731.82;107217;1257;72676;-39
2024/01/15 06:38:06;;;;;;;12.50;8.60;;;;;;;-1.17;71.87;97726.26;107213;1257;60355;-39
2024/01/15 06:40:33;;;;;;;13.90;9.00;;;;;;;-1.17;72.02;97724.73;107217;1260;60451;-40
2024/01/15 06:43:01;;;;;;;14.30;9.30;;;;;;;-1.19;72.35;97722.91;107230;1258;72636;-40
2024/01/15 06:45:28;;;;;;;14.30;9.20;;;;;;;-1.22;72.88;97718.84;107204;1256;66755;-38
2024/01/15 06:47:56;;;;;;;14.60;9.10;;;;;;;-1.23;73.13;97720.79;107192;1257;72454;-39
2024/01/15 06:50:23;;;;;;;14.40;8.40;;;;;;;-1.17;73.40;97723.23;107181;1257;60894;-40
2024/01/15 06:52:51;;;;;;;13.90;9.40;;;;;;;-1.13;73.84;97718.75;107268;1256;60438;-39
2024/01/15 06:55:18;;;;;;;15.00;8.60;;;;;;;-1.15;74.12;97719.58;107267;1256;73806;-39
2024/01/15 06:57:46;;;;;;;14.40;9.20;;;;;;;-1.17;74.51;97716.47;107223;1257;66969;-40
2024/01/15 07:00:15;;;;;;;13.20;8.60;;;;;;;-1.20;74.78;97715.04;107187;1257;71466;-39
2024/01/15 07:02:42;;;;;;;13.50;8.10;;;;;;;-1.18;75.04;97714.60;107268;1260;60560;-39
2024/01/15 07:05:10;;;;;;;11.40;7.80;;;;;;;-1.09;75.07;97715.48;107239;1256;60405;-39
2024/01/15 07:07:38;;;;;;;13.20;8.50;;;;;;;-1.09;75.38;97710.63;107236;1260;73716;-40
2024/01/15 07:10:07;;;;;;;12.60;8.50;;;;;;;-1.12;75.56;97707.93;107265;1258;68122;-40
2024/01/15 07:12:34;;;;;;;14.90;8.40;;;;;;;-1.15;75.72;97707.35;107417;1258;71761;-40
2024/01/15 07:15:03;;;;;;;12.80;8.80;;;;;;;-1.16;75.93;97703.96;106503;1256;1003628;-40
2024/01/15 07:17:31;;;;;;;13.30;8.80;;;;;;;-1.13;75.83;97702.36;107227;1256;60662;-39
2024/01/15 07:19:59;;;;;;;13.20;8.70;;;;;;;-1.04;75.48;97703.12;107218;1257;73921;-40
2024/01/15 07:22:26;;;;;;;12.00;8.00;;;;;;;-1.03;75.29;97698.98;107237;1255;67686;-39
2024/01/15 07:24:54;;;;;;;13.20;8.30;;;;;;;-1.04;75.26;97696.29;107231;1259;72690;-39
2024/01/15 07:27:22;;;;;;;11.90;8.30;;;;;;;-1.05;75.08;97693.23;107197;1256;60440;-40
2024/01/15 07:29:49;;;;;;;13.60;8.60;;;;;;;-1.06;74.58;97692.86;107220;1256;60657;-39
2024/01/15 07:32:17;;;;;;;13.50;8.50;;;;;;;-1.03;74.55;97689.93;107200;1256;72721;-39
2024/01/15 07:34:44;;;;;;;12.70;8.00;;;;;;;-0.93;74.07;97688.95;107184;1257;67782;-39
2024/01/15 07:37:12;;;;;;;12.90;8.60;;;;;;;-0.90;73.68;97686.17;107204;1257;71409;-39
2024/01/15 07:39:40;;;;;;;13.20;8.60;;;;;;;-0.88;73.43;97689.52;107196;1257;60506;-39
2024/01/15 07:42:10;;;;;;;11.80;8.30;;;;;;;-0.88;73.24;97688.30;107413;1257;60516;-38
2024/01/15 07:44:38;;;;;;;13.90;8.80;;;;;;;-0.88;73.15;97686.94;107193;1257;72394;-40
2024/01/15 07:47:05;;;;;;;11.00;7.60;;;;;;;-0.87;73.18;97689.69;107379;1256;67584;-39
2024/01/15 07:49:33;;;;;;;13.50;8.40;;;;;;;-0.85;72.84;97688.94;107186;1260;72771;-39
2024/01/15 07:52:01;;;;;;;10.40;7.20;;;;;;;-0.75;72.68;97686.09;107205;1257;61242;-40
2024/01/15 07:54:28;;;;;;;13.70;8.50;;;;;;;-0.71;72.24;97682.60;107247;1256;60421;-40
2024/01/15 07:57:00;;;;;;;12.10;8.30;;;;;;;-0.71;72.22;97687.67;107220;1256;73937;-40
2024/01/15 07:59:28;;;;;;;11.30;7.80;;;;;;;-0.75;72.00;97684.90;107277;1257;66377;-40
2024/01/15 08:01:55;;;;;;;11.20;7.00;;;;;;;-0.72;71.96;97686.88;107178;1257;72937;-40
2024/01/15 08:04:23;;;;;;;12.70;8.10;;;;;;;-0.71;71.86;97685.33;107209;1257;60560;-40
2024/01/15 08:06:51;;;;;;;11.40;7.60;;;;;;;-0.68;71.86;97690.48;106495;1256;1003853;-39
2024/01/15 08:09:18;;;;;;;10.70;7.50;;;;;;;-0.60;71.50;97693.41;107207;1256;74000;-40
2024/01/15 08:11:46;;;;;;;12.40;8.10;;;;;;;-0.58;71.44;97693.55;107258;1258;67707;-40
2024/01/15 08:14:14;;;;;;;12.10;7.90;;;;;;;-0.60;71.44;97696.00;107206;1256;71490;-40
2024/01/15 08:16:43;;;;;;;12.60;7.80;;;;;;;-0.61;71.14;97692.91;107217;1256;60777;-40
2024/01/15 08:19:11;;;;;;;14.60;8.60;;;;;;;-0.62;70.85;97691.81;107224;1256;60434;-40
2024/01/15 08:21:39;;;;;;;11.60;7.80;;;;;;;-0.62;70.67;97698.04;107222;1257;73974;-40
2024/01/15 08:24:07;;;;;;;12.40;7.80;;;;;;;-0.62;70.04;97700.17;107218;1257;67619;-39
2024/01/15 08:26:34;;;;;;;10.80;7.20;;;;;;;-0.53;69.81;97691.36;107209;1256;72722;-39
2024/01/15 08:29:02;;;;;;;11.10;7.40;;;;;;;-0.49;69.43;97693.28;107203;1258;60693;-40
2024/01/15 08:31:29;;;;;;;13.80;7.80;;;;;;;-0.49;69.19;97693.05;107217;1261;60370;-40
2024/01/15 08:33:59;;;;;;;11.50;8.00;;;;;;;-0.49;68.95;97695.48;107248;1260;73857;-40
2024/01/15 08:36:28;;;;;;;14.00;9.10;;;;;;;-0.50;69.15;97686.56;107258;1260;67947;-39
2024/01/15 08:38:55;;;;;;;12.20;8.30;;;;;;;-0.50;68.82;97684.34;107222;1256;72711;-40
2024/01/15 08:41:24;;;;;;;12.90;8.00;;;;;;;-0.50;68.57;97675.38;107220;1255;60404;-39
2024/01/15 08:43:52;;;;;;;13.60;8.30;;;;;;;-0.49;68.17;97677.08;107254;1260;59621;-39
2024/01/15 08:46:20;;;;;;;13.80;8.30;;;;;;;-0.43;67.87;97674.36;107193;1260;73013;-39
2024/01/15 08:48:48;;;;;;;12.70;8.20;;;;;;;-0.36;67.38;97679.85;107270;1257;67096;-39
2024/01/15 08:51:16;;;;;;;12.00;8.30;;;;;;;-0.36;67.03;97674.61;107253;1257;72835;-39
2024/01/15 08:53:43;;;;;;;13.20;8.20;;;;;;;-0.37;66.73;97674.42;107216;1257;60072;-40
2024/01/15 08:56:11;;;;;;;11.30;7.70;;;;;;;-0.37;66.06;97677.98;107244;1256;60415;-40
2024/01/15 08:58:39;;;;;;;13.00;8.20;;;;;;;-0.38;65.94;97674.30;107219;1256;73826;-40
2024/01/15 09:01:06;;;;;;;12.30;8.00;;;;;;;-0.39;65.77;97668.73;107199;1261;65736;-39
2024/01/15 09:03:34;;;;;;;11.40;7.90;;;;;;;-0.39;65.23;97667.05;107213;1258;72846;-39
2024/01/15 09:06:02;;;;;;;12.60;8.20;;;;;;;-0.41;64.88;97661.44;106453;1256;1002929;-40
2024/01/15 09:08:30;;;;;;;11.50;7.40;;;;;;;-0.40;64.78;97653.17;107229;1257;61143;-40
2024/01/15 09:10:58;;;;;;;11.80;8.00;;;;;;;-0.39;64.78;97650.02;107210;1256;72469;-40
2024/01/15 09:13:26;;;;;;;12.70;8.20;;;;;;;-0.37;64.61;97647.03;107217;1256;66953;-40
2024/01/15 09:15:53;;;;;;;11.30;7.30;;;;;;;-0.34;64.26;97646.84;107206;1256;72784;-39
2024/01/15 09:18:21;;;;;;;10.70;7.30;;;;;;;-0.25;63.94;97643.64;107180;1256;60863;-40
2024/01/15 09:20:48;;;;;;;12.10;7.80;;;;;;;-0.15;63.35;97636.59;107207;1256;60423;-39
2024/01/15 09:23:16;;;;;;;12.90;7.90;;;;;;;-0.12;62.77;97629.17;107203;1256;73882;-39
2024/01/15 09:25:43;;;;;;;12.20;7.50;;;;;;;-0.11;62.93;97623.41;107204;1256;66877;-40
2024/01/15 09:28:11;;;;;;;10.20;6.80;;;;;;;-0.10;62.63;97622.91;107236;1256;71401;-40
2024/01/15 09:30:39;;;;;;;11.30;7.00;;;;;;;-0.10;62.27;97620.23;107227;1256;60333;-40
2024/01/15 09:33:06;;;;;;;10.30;7.10;;;;;;;-0.08;62.50;97619.23;107225;1256;60351;-39
2024/01/15 09:35:34;;;;;;;10.90;7.10;;;;;;;-0.07;62.42;97614.39;107221;1257;73986;-40
2024/01/15 09:38:02;;;;;;;10.10;6.70;;;;;;;-0.08;62.05;97621.70;107218;1256;68216;-40
2024/01/15 09:40:32;;;;;;;10.90;6.90;;;;;;;-0.08;62.26;97615.64;107236;1256;72752;-39
2024/01/15 09:43:00;;;;;;;10.70;7.30;;;;;;;-0.10;62.43;97613.85;106476;1260;1003317;-40
2024/01/15 09:45:28;;;;;;;9.60;6.60;;;;;;;-0.11;62.20;97610.48;107244;1256;59622;-39
2024/01/15 09:47:56;;;;;;;9.90;6.30;;;;;;;-0.11;62.58;97614.35;107154;1256;73949;-40
2024/01/15 09:50:26;;;;;;;10.60;6.80;;;;;;;-0.12;62.53;97615.98;107243;1257;67977;-40
2024/01/15 09:52:54;;;;;;;10.70;7.10;;;;;;;-0.12;62.65;97608.84;106483;1261;1003642;-40
2024/01/15 09:55:22;;;;;;;10.00;7.00;;;;;;;-0.12;62.66;97606.65;107206;1256;60421;-40
2024/01/15 09:57:50;;;;;;;11.40;7.10;;;;;;;-0.10;62.90;97603.27;107252;1256;60441;-40
2024/01/15 10:00:18;;;;;;;9.10;6.60;;;;;;;-0.07;62.73;97601.25;107255;1256;74250;-40
2024/01/15 10:02:46;;;;;;;10.00;6.90;;;;;;;-0.06;62.71;97590.25;107232;1260;67878;-41
2024/01/15 10:05:14;;;;;;;9.80;6.80;;;;;;;-0.05;62.81;97589.73;107190;1256;70593;-40
2024/01/15 10:07:42;;;;;;;9.80;6.40;;;;;;;-0.04;62.56;97579.11;107210;1256;60419;-41
2024/01/15 10:10:11;;;;;;;9.40;6.60;;;;;;;0.01;62.77;97579.27;107246;1256;60430;-40
2024/01/15 10:12:39;;;;;;;10.30;6.40;;;;;;;0.14;62.67;97586.13;103406;1256;1015632;-41
2024/01/15 10:16:22;;;;;;;10.20;6.50;;;;;;;0.22;62.45;97577.86;104198;1291;600234;-39
2024/01/15 10:18:50;;;;;;;10.20;6.80;;;;;;;0.25;62.58;97567.75;106630;1265;59255;-40
2024/01/15 10:21:18;;;;;;;10.70;6.70;;;;;;;0.31;62.47;97563.75;106503;1267;59956;-40
2024/01/15 10:23:45;;;;;;;10.00;6.50;;;;;;;0.34;62.31;97561.70;106643;1266;72651;-40
2024/01/15 10:26:13;;;;;;;9.50;6.80;;;;;;;0.35;62.11;97560.49;106603;1267;67164;-40
2024/01/15 10:28:45;;;;;;;11.10;7.30;;;;;;;0.34;62.14;97564.52;105869;1266;1003737;-40
2024/01/15 10:31:13;;;;;;;10.00;6.80;;;;;;;0.32;62.35;97563.70;105808;1264;1003039;-40
2024/01/15 10:33:40;;;;;;;9.60;6.60;;;;;;;0.29;62.30;97563.61;106756;1264;60389;-40
2024/01/15 10:36:09;;;;;;;11.30;7.10;;;;;;;0.27;62.46;97556.08;106808;1264;71134;-40
2024/01/15 10:38:37;;;;;;;9.30;6.30;;;;;;;0.25;62.80;97554.05;106732;1264;67509;-40
2024/01/15 13:03:04;;;;;;;17.50;8.80;;;;;;;0.84;58.40;97483.27;93398;1281;948286;-41
2024/01/15 13:05:33;;;;;;;13.80;8.70;;;;;;;0.76;58.51;97483.42;106887;1283;60328;-40
2024/01/15 13:08:01;;;;;;;9.00;6.80;;;;;;;0.69;58.52;97481.48;104995;1286;1003696;-39
2024/01/15 13:10:30;;;;;;;12.90;8.60;;;;;;;0.60;58.73;97477.73;104107;1289;1003095;-39
2024/01/15 13:12:57;;;;;;;14.80;9.30;;;;;;;0.51;58.84;97479.00;104851;1287;72870;-39
2024/01/15 13:15:25;;;;;;;13.70;8.70;;;;;;;0.39;59.01;97480.81;105113;1284;59720;-39
2024/01/15 13:17:53;;;;;;;13.80;8.70;;;;;;;0.27;59.30;97479.56;105231;1281;60208;-40
2024/01/15 13:20:21;;;;;;;13.10;8.90;;;;;;;0.17;59.41;97482.84;105273;1283;71875;-39
2024/01/15 13:22:49;;;;;;;12.90;9.00;;;;;;;0.05;59.86;97474.43;105150;1281;66144;-40
2024/01/15 13:25:17;;;;;;;14.90;9.30;;;;;;;-0.07;59.84;97472.47;105152;1289;71493;-41
2024/01/15 13:27:44;;;;;;;15.00;9.00;;;;;;;-0.18;60.33;97474.98;105144;1287;59667;-41
2024/01/15 13:30:13;;;;;;;12.70;8.40;;;;;;;-0.27;60.56;97472.16;105161;1287;60191;-41
2024/01/15 13:32:41;;;;;;;13.30;8.90;;;;;;;-0.38;60.53;97473.00;105165;1288;71905;-41
2024/01/15 13:35:12;;;;;;;14.60;9.50;;;;;;;-0.48;60.65;97475.10;104400;1281;1003432;-40
2024/01/15 13:37:43;;;;;;;15.00;9.80;;;;;;;-0.59;60.75;97471.19;105097;1281;72873;-40
2024/01/15 13:40:16;;;;;;;13.60;9.40;;;;;;;-0.68;61.03;97470.73;105184;1283;59632;-40
2024/01/15 13:42:45;;;;;;;14.50;9.40;;;;;;;-0.76;61.32;97470.34;105161;1284;59802;-40